Time;durP1;ratioP1;P1;durP2;ratioP2;P2;SDS_P1;SDS_P2;PMS_P1;PMS_P2;Temp;Humidity;BMP_temperature;BMP_pressure;BME280_temperature;BME280_humidity;BME280_pressure;Samples;Min_cycle;Max_cycle;Signal;HPM_P1;HPM_P2
2022/03/16 00:02:25;;;;;;;38.35;22.02;;;6.90;99.90;;;;;;5052172;28;20037;-62
2022/03/16 00:04:53;;;;;;;41.75;22.33;;;6.90;99.90;;;;;;5054027;28;20041;-62
2022/03/16 00:07:19;;;;;;;43.17;23.63;;;6.80;99.90;;;;;;5053836;28;20048;-62
2022/03/16 00:09:46;;;;;;;39.85;22.08;;;6.80;99.90;;;;;;5052550;28;20025;-62
2022/03/16 00:12:13;;;;;;;37.50;22.15;;;6.80;99.90;;;;;;5052453;28;20426;-62
2022/03/16 00:14:39;;;;;;;42.10;23.15;;;6.80;99.90;;;;;;5053731;28;20025;-62
2022/03/16 00:17:05;;;;;;;40.38;24.00;;;6.70;99.90;;;;;;5053128;28;20028;-62
2022/03/16 00:19:31;;;;;;;42.20;23.20;;;6.70;99.90;;;;;;5058196;28;20040;-62
2022/03/16 00:21:58;;;;;;;41.22;24.67;;;6.70;99.90;;;;;;5056592;28;20035;-62
2022/03/16 00:24:25;;;;;;;45.30;24.98;;;6.80;99.90;;;;;;5057725;28;20029;-62
2022/03/16 00:26:50;;;;;;;44.53;24.80;;;6.80;99.90;;;;;;5057814;28;20021;-62
2022/03/16 00:29:16;;;;;;;46.65;25.23;;;6.70;99.90;;;;;;5056788;28;20151;-62
2022/03/16 00:31:42;;;;;;;46.78;24.77;;;6.70;99.90;;;;;;5056383;28;20120;-62
2022/03/16 00:34:07;;;;;;;38.45;20.50;;;6.70;99.90;;;;;;5057603;28;20075;-62
2022/03/16 00:36:33;;;;;;;40.60;24.52;;;6.80;99.90;;;;;;5057269;28;20029;-62
2022/03/16 00:38:59;;;;;;;42.33;20.10;;;6.80;99.90;;;;;;5056237;28;20381;-62
2022/03/16 00:41:24;;;;;;;31.02;16.92;;;6.90;99.90;;;;;;5056217;28;20027;-62
2022/03/16 00:43:51;;;;;;;37.72;21.38;;;7.00;99.90;;;;;;5057423;28;20121;-62
2022/03/16 00:46:17;;;;;;;37.17;19.65;;;7.10;99.90;;;;;;5057146;28;20025;-62
2022/03/16 00:48:42;;;;;;;34.85;17.67;;;7.20;99.90;;;;;;5056017;28;20055;-62
2022/03/16 00:51:09;;;;;;;36.08;15.93;;;7.30;99.90;;;;;;5057096;28;20163;-62
2022/03/16 00:53:35;;;;;;;30.50;13.02;;;7.40;99.90;;;;;;5057197;28;20028;-62
2022/03/16 00:56:04;;;;;;;27.50;12.23;;;7.60;99.90;;;;;;5057372;28;20381;-62
2022/03/16 00:58:29;;;;;;;;;;;7.80;99.90;;;;;;5056334;28;20028;-62
2022/03/16 01:00:55;;;;;;;25.85;10.82;;;8.00;99.90;;;;;;5057086;28;19904;-62
2022/03/16 01:03:21;;;;;;;27.95;10.15;;;8.40;99.90;;;;;;5056968;28;20063;-62
2022/03/16 01:05:47;;;;;;;23.85;8.93;;;8.50;99.90;;;;;;5056740;28;20029;-62
2022/03/16 01:08:13;;;;;;;19.85;8.18;;;8.70;99.90;;;;;;5057135;28;20045;-64
2022/03/16 01:10:39;;;;;;;19.23;7.68;;;8.90;99.90;;;;;;5056098;28;20036;-63
2022/03/16 01:13:06;;;;;;;18.42;7.80;;;9.20;99.90;;;;;;5056018;28;20060;-63
2022/03/16 01:15:31;;;;;;;13.98;7.10;;;9.30;99.90;;;;;;5056894;28;20025;-65
2022/03/16 01:17:57;;;;;;;19.52;7.88;;;9.40;99.90;;;;;;5057072;28;20025;-62
2022/03/16 01:20:23;;;;;;;17.55;6.95;;;9.50;99.90;;;;;;5057085;28;20112;-62
2022/03/16 01:22:49;;;;;;;19.48;7.82;;;9.50;99.90;;;;;;5055350;28;20477;-62
2022/03/16 01:25:15;;;;;;;23.52;7.80;;;9.60;99.90;;;;;;5056344;28;20109;-62
2022/03/16 01:27:40;;;;;;;24.58;9.02;;;9.60;99.90;;;;;;5056575;28;20029;-62
2022/03/16 01:30:06;;;;;;;18.27;8.00;;;9.60;99.90;;;;;;5055945;28;20032;-62
2022/03/16 01:32:32;;;;;;;19.90;7.82;;;9.60;99.90;;;;;;5055266;28;20032;-62
2022/03/16 01:34:58;;;;;;;20.48;9.18;;;9.60;99.90;;;;;;5056274;28;20025;-62
2022/03/16 01:37:24;;;;;;;19.00;8.27;;;9.60;99.90;;;;;;5055123;28;20028;-62
2022/03/16 01:39:49;;;;;;;20.02;9.13;;;9.60;99.90;;;;;;5056317;28;20028;-62
2022/03/16 01:42:15;;;;;;;25.63;10.25;;;9.60;99.90;;;;;;5055947;28;20037;-62
2022/03/16 01:44:50;;;;;;;16.88;9.45;;;9.60;99.90;;;;;;5056293;28;20033;-62
2022/03/16 01:47:18;;;;;;;25.05;10.57;;;9.60;99.90;;;;;;5056270;28;20025;-62
2022/03/16 01:49:44;;;;;;;22.52;10.43;;;9.50;99.90;;;;;;5056674;28;20025;-62
2022/03/16 01:52:13;;;;;;;18.05;9.98;;;9.50;99.90;;;;;;5055083;28;20072;-62
2022/03/16 01:54:40;;;;;;;16.75;10.40;;;9.50;99.90;;;;;;5054906;28;20029;-62
2022/03/16 01:57:09;;;;;;;18.80;9.57;;;9.40;99.90;;;;;;5055857;28;20060;-62
2022/03/16 01:59:36;;;;;;;20.90;10.38;;;9.40;99.90;;;;;;5056048;28;20056;-62
2022/03/16 02:02:03;;;;;;;22.17;10.18;;;9.50;99.90;;;;;;5054636;28;20124;-62
2022/03/16 02:04:29;;;;;;;23.63;10.35;;;9.50;99.90;;;;;;5054596;28;20056;-62
2022/03/16 02:06:55;;;;;;;18.52;10.07;;;9.50;99.90;;;;;;5055721;28;20053;-62
2022/03/16 02:09:23;;;;;;;15.82;10.23;;;9.50;99.90;;;;;;5055226;28;20116;-62
2022/03/16 02:11:49;;;;;;;24.05;11.43;;;9.50;99.90;;;;;;5055909;28;20055;-62
2022/03/16 02:14:15;;;;;;;17.02;9.90;;;9.50;99.90;;;;;;5054503;28;20033;-62
2022/03/16 02:16:41;;;;;;;19.75;10.20;;;9.50;99.90;;;;;;5054991;28;20503;-62
2022/03/16 02:19:06;;;;;;;21.63;10.55;;;9.50;99.90;;;;;;5055384;28;20108;-62
2022/03/16 02:21:40;;;;;;;18.27;11.65;;;9.50;99.90;;;;;;5055319;28;20055;-62
2022/03/16 02:24:07;;;;;;;17.52;11.90;;;9.50;99.90;;;;;;5055512;28;20033;-63
2022/03/16 02:26:33;;;;;;;16.73;11.23;;;9.50;99.90;;;;;;5054460;28;20086;-62
2022/03/16 02:28:59;;;;;;;15.55;10.02;;;9.50;99.90;;;;;;5055738;28;20032;-62
2022/03/16 02:31:25;;;;;;;18.52;10.55;;;9.50;99.90;;;;;;5055444;28;20025;-62
2022/03/16 02:33:52;;;;;;;14.68;9.70;;;9.50;99.90;;;;;;5054327;28;20044;-62
2022/03/16 02:36:17;;;;;;;14.57;9.65;;;9.40;99.90;;;;;;5054081;28;20021;-62
2022/03/16 02:38:43;;;;;;;16.80;10.13;;;9.50;99.90;;;;;;5054118;28;20490;-62
2022/03/16 02:41:09;;;;;;;18.63;10.32;;;9.40;99.90;;;;;;5055235;28;20570;-62
2022/03/16 02:43:35;;;;;;;15.10;9.93;;;9.40;99.90;;;;;;5055178;28;20046;-62
2022/03/16 02:46:01;;;;;;;16.38;10.20;;;9.30;99.90;;;;;;5055132;28;20025;-62
2022/03/16 02:48:27;;;;;;;17.25;10.10;;;9.30;99.90;;;;;;5054811;28;20032;-61
2022/03/16 02:50:53;;;;;;;20.58;10.90;;;9.30;99.90;;;;;;5054746;28;20025;-62
2022/03/16 02:53:19;;;;;;;14.50;9.93;;;9.30;99.90;;;;;;5055031;28;20036;-62
2022/03/16 02:55:45;;;;;;;17.50;10.32;;;9.30;99.90;;;;;;5054974;28;20032;-62
2022/03/16 02:58:15;;;;;;;18.13;10.98;;;9.30;99.90;;;;;;5054897;28;20036;-62
2022/03/16 03:00:41;;;;;;;15.50;9.45;;;9.30;99.90;;;;;;5054743;28;20025;-62
2022/03/16 03:03:07;;;;;;;14.60;9.90;;;9.30;99.90;;;;;;5053787;28;20037;-62
2022/03/16 03:05:32;;;;;;;16.50;9.93;;;9.20;99.90;;;;;;5053455;28;20527;-62
2022/03/16 03:08:17;;;;;;;16.38;9.88;;;9.30;99.90;;;;;;5053054;28;20055;-62
2022/03/16 03:10:42;;;;;;;14.43;9.73;;;9.30;99.90;;;;;;5054322;28;20381;-61
2022/03/16 03:13:08;;;;;;;15.32;9.65;;;9.40;99.90;;;;;;5054626;28;20025;-62
2022/03/16 03:15:34;;;;;;;16.30;9.65;;;9.50;99.90;;;;;;5054275;28;20032;-62
2022/03/16 03:18:00;;;;;;;19.52;9.82;;;9.50;99.90;;;;;;5054527;28;20021;-62
2022/03/16 03:20:25;;;;;;;17.27;11.05;;;9.50;99.90;;;;;;5054698;28;20021;-62
2022/03/16 03:22:51;;;;;;;17.02;9.45;;;9.60;99.90;;;;;;5054304;28;20041;-62
2022/03/16 03:25:17;;;;;;;14.55;9.13;;;9.60;99.90;;;;;;5053167;28;20080;-62
2022/03/16 03:27:42;;;;;;;14.48;10.38;;;9.60;99.90;;;;;;5054441;28;20027;-62
2022/03/16 03:30:09;;;;;;;22.58;12.52;;;9.50;99.90;;;;;;5054572;28;20465;-62
2022/03/16 03:32:34;;;;;;;16.98;12.32;;;9.40;99.90;;;;;;5054463;28;20036;-62
2022/03/16 03:35:00;;;;;;;21.10;13.18;;;9.30;99.90;;;;;;5053072;28;20116;-62
2022/03/16 03:37:28;;;;;;;23.85;13.93;;;9.20;99.90;;;;;;5052986;28;20029;-62
2022/03/16 03:39:54;;;;;;;25.20;15.30;;;9.10;99.90;;;;;;5052906;28;20028;-62
2022/03/16 03:42:19;;;;;;;21.00;14.70;;;8.90;99.90;;;;;;5054628;28;20410;-62
2022/03/16 03:44:45;;;;;;;22.67;14.45;;;8.90;99.90;;;;;;5054345;28;20067;-62
2022/03/16 03:47:11;;;;;;;21.95;14.90;;;8.90;99.90;;;;;;5054092;28;20052;-62
2022/03/16 03:49:39;;;;;;;25.65;14.70;;;8.90;99.90;;;;;;5054061;28;20033;-62
2022/03/16 03:52:06;;;;;;;23.02;14.65;;;8.80;99.90;;;;;;5053619;28;20107;-62
2022/03/16 03:54:32;;;;;;;21.35;13.48;;;8.80;99.90;;;;;;5052914;28;20369;-62
2022/03/16 03:56:58;;;;;;;21.70;13.35;;;8.80;99.90;;;;;;5054175;28;20104;-62
2022/03/16 03:59:24;;;;;;;20.15;12.65;;;8.80;99.90;;;;;;5053603;28;20102;-62
2022/03/16 04:01:50;;;;;;;16.40;11.50;;;8.90;99.90;;;;;;5052765;28;20032;-62
2022/03/16 04:04:17;;;;;;;19.38;11.68;;;8.90;99.90;;;;;;5052442;28;20530;-62
2022/03/16 04:06:42;;;;;;;22.27;11.85;;;8.90;99.90;;;;;;5052317;28;20476;-62
2022/03/16 04:09:08;;;;;;;24.30;13.50;;;9.00;99.90;;;;;;5052532;28;20024;-61
2022/03/16 04:11:34;;;;;;;20.05;12.43;;;9.00;99.90;;;;;;5052701;28;20032;-62
2022/03/16 04:13:59;;;;;;;18.73;13.05;;;8.90;99.90;;;;;;5053389;28;20029;-62
2022/03/16 04:16:25;;;;;;;22.20;13.30;;;8.90;99.90;;;;;;5053672;28;20033;-61
2022/03/16 04:18:51;;;;;;;22.80;13.50;;;9.00;99.90;;;;;;5053568;28;20033;-62
2022/03/16 04:21:16;;;;;;;21.30;11.93;;;9.00;99.90;;;;;;5053647;28;20029;-62
2022/03/16 04:23:42;;;;;;;20.88;12.52;;;9.00;99.90;;;;;;5053268;28;20107;-62
2022/03/16 04:26:08;;;;;;;16.65;10.90;;;9.00;99.90;;;;;;5052349;28;20025;-62
2022/03/16 04:28:34;;;;;;;19.83;11.30;;;9.00;99.90;;;;;;5053537;28;20029;-61
2022/03/16 04:31:00;;;;;;;13.88;10.10;;;9.00;99.90;;;;;;5052293;28;20025;-62
2022/03/16 04:33:26;;;;;;;19.27;10.70;;;9.00;99.90;;;;;;5053745;28;20457;-62
2022/03/16 04:35:52;;;;;;;17.58;10.25;;;9.00;99.90;;;;;;5053067;28;20028;-62
2022/03/16 04:38:19;;;;;;;15.10;10.00;;;9.00;99.90;;;;;;5053597;28;20021;-62
2022/03/16 04:40:45;;;;;;;15.73;9.40;;;9.10;99.90;;;;;;5052181;28;20035;-62
2022/03/16 04:43:10;;;;;;;13.40;8.70;;;9.10;99.90;;;;;;5053337;28;20041;-62
2022/03/16 04:45:38;;;;;;;12.27;8.68;;;9.10;99.90;;;;;;5053391;28;20054;-61
2022/03/16 04:48:23;;;;;;;11.90;7.43;;;9.00;99.90;;;;;;5053328;28;20021;-62
2022/03/16 04:50:49;;;;;;;10.38;7.25;;;9.00;99.90;;;;;;5053512;28;20025;-62
2022/03/16 04:53:15;;;;;;;11.10;6.55;;;9.00;99.90;;;;;;5053458;28;20033;-62
2022/03/16 04:55:41;;;;;;;10.43;6.57;;;8.90;99.90;;;;;;5053075;28;20017;-62
2022/03/16 04:58:07;;;;;;;9.65;6.05;;;8.90;99.90;;;;;;5053576;28;20029;-62
2022/03/16 05:00:34;;;;;;;10.73;6.80;;;8.90;99.90;;;;;;5053217;28;20033;-62
2022/03/16 05:03:00;;;;;;;8.40;6.25;;;8.80;99.90;;;;;;5051857;28;20362;-61
2022/03/16 05:05:26;;;;;;;7.90;5.80;;;8.80;99.90;;;;;;5054413;28;20052;-61
2022/03/16 05:07:51;;;;;;;9.52;6.38;;;8.80;99.90;;;;;;5055513;28;20060;-61
2022/03/16 05:10:17;;;;;;;11.40;7.63;;;8.80;99.90;;;;;;5056830;28;20496;-62
2022/03/16 05:12:44;;;;;;;10.25;7.00;;;8.80;99.90;;;;;;5056651;28;20025;-60
2022/03/16 05:15:13;;;;;;;10.23;7.25;;;8.80;99.90;;;;;;5056828;28;20033;-61
2022/03/16 05:17:39;;;;;;;;;;;8.80;99.90;;;;;;5055993;28;20116;-61
2022/03/16 05:20:06;;;;;;;10.07;6.75;;;8.90;99.90;;;;;;5055472;28;20390;-61
2022/03/16 05:22:45;;;;;;;11.55;7.57;;;8.90;99.90;;;;;;5056593;28;20025;-61
2022/03/16 05:25:12;;;;;;;;;;;8.90;99.90;;;;;;5057124;28;20028;-61
2022/03/16 05:27:38;;;;;;;12.50;8.55;;;8.90;99.90;;;;;;5056310;28;19905;-61
2022/03/16 05:30:05;;;;;;;11.77;8.30;;;8.80;99.90;;;;;;5056569;28;20052;-61
2022/03/16 05:32:32;;;;;;;11.75;7.88;;;8.80;99.90;;;;;;5056538;28;20025;-61
2022/03/16 05:34:57;;;;;;;10.77;8.05;;;8.80;99.90;;;;;;5055284;28;20052;-61
2022/03/16 05:37:23;;;;;;;12.90;8.30;;;8.80;99.90;;;;;;5055264;28;20024;-61
2022/03/16 05:39:48;;;;;;;12.95;7.93;;;8.80;99.90;;;;;;5056504;28;20025;-61
2022/03/16 05:42:14;;;;;;;12.23;8.25;;;8.80;99.90;;;;;;5056578;28;20025;-61
2022/03/16 05:44:40;;;;;;;12.73;8.57;;;8.70;99.90;;;;;;5056421;28;20115;-61
2022/03/16 05:47:06;;;;;;;13.30;9.48;;;8.80;99.90;;;;;;5055292;28;20025;-62
2022/03/16 05:49:31;;;;;;;15.07;9.98;;;8.70;99.90;;;;;;5054878;28;20051;-61
2022/03/16 05:51:57;;;;;;;15.70;10.18;;;8.70;99.90;;;;;;5054913;28;20032;-60
2022/03/16 05:54:23;;;;;;;14.80;9.95;;;8.70;99.90;;;;;;5056191;28;20032;-61
2022/03/16 05:56:48;;;;;;;13.35;9.52;;;8.70;99.90;;;;;;5054783;28;20077;-62
2022/03/16 05:59:14;;;;;;;15.50;10.57;;;8.60;99.90;;;;;;5056098;28;20040;-62
2022/03/16 06:01:39;;;;;;;18.40;11.30;;;8.60;99.90;;;;;;5055743;28;20098;-62
2022/03/16 06:04:05;;;;;;;16.70;11.20;;;8.60;99.90;;;;;;5054829;28;20036;-62
2022/03/16 06:06:31;;;;;;;18.67;11.85;;;8.60;99.90;;;;;;5055666;28;20033;-62
2022/03/16 06:08:57;;;;;;;17.50;10.77;;;8.60;99.90;;;;;;5055457;28;20041;-60
2022/03/16 06:11:23;;;;;;;18.00;11.30;;;8.60;99.90;;;;;;5054480;28;20078;-61
2022/03/16 06:13:49;;;;;;;18.70;12.18;;;8.60;99.90;;;;;;5055809;28;20060;-61
2022/03/16 06:16:15;;;;;;;15.45;11.30;;;8.60;99.90;;;;;;5055384;28;20420;-61
2022/03/16 06:18:40;;;;;;;17.13;11.57;;;8.60;99.90;;;;;;5055927;28;20027;-61
2022/03/16 06:21:06;;;;;;;18.42;11.95;;;8.60;99.90;;;;;;5054571;28;20025;-60
2022/03/16 06:23:32;;;;;;;18.60;12.35;;;8.60;99.90;;;;;;5055901;28;20103;-61
2022/03/16 06:25:57;;;;;;;20.25;11.98;;;8.60;99.90;;;;;;5055216;28;20032;-61
2022/03/16 06:28:23;;;;;;;21.23;12.57;;;8.50;99.90;;;;;;5054263;28;20029;-60
2022/03/16 06:30:49;;;;;;;19.98;12.13;;;8.50;99.90;;;;;;5054334;28;20350;-61
2022/03/16 06:33:14;;;;;;;19.40;12.05;;;8.50;99.90;;;;;;5054079;28;20029;-61
2022/03/16 06:35:40;;;;;;;22.48;13.38;;;8.40;99.90;;;;;;5055335;28;20032;-61
2022/03/16 06:38:06;;;;;;;22.35;13.50;;;8.40;99.90;;;;;;5055206;28;20047;-60
2022/03/16 06:40:31;;;;;;;23.80;13.80;;;8.40;99.90;;;;;;5054968;28;20051;-62
2022/03/16 06:42:58;;;;;;;23.00;12.98;;;8.30;99.90;;;;;;5055113;28;20108;-61
2022/03/16 06:45:26;;;;;;;24.02;13.63;;;8.30;99.90;;;;;;5055188;28;20025;-61
2022/03/16 06:48:01;;;;;;;22.13;13.63;;;8.30;99.90;;;;;;5055096;28;20479;-61
2022/03/16 06:50:28;;;;;;;24.05;13.93;;;8.30;99.90;;;;;;5054831;28;20021;-61
2022/03/16 06:52:55;;;;;;;24.50;13.57;;;8.20;99.90;;;;;;5053765;28;20377;-60
2022/03/16 06:55:39;;;;;;;23.02;13.20;;;8.20;99.90;;;;;;5055180;28;20430;-60
2022/03/16 06:58:04;;;;;;;25.55;15.02;;;8.20;99.90;;;;;;5055236;28;20025;-61
2022/03/16 07:00:30;;;;;;;23.83;13.55;;;8.10;99.90;;;;;;5054700;28;20140;-60
2022/03/16 07:02:57;;;;;;;31.15;14.75;;;8.10;99.90;;;;;;5054690;28;20076;-60
2022/03/16 07:05:42;;;;;;;25.98;14.27;;;8.10;99.90;;;;;;5053450;28;20029;-61
2022/03/16 07:08:10;;;;;;;24.30;15.10;;;8.00;99.90;;;;;;5054796;28;20044;-60
2022/03/16 07:10:39;;;;;;;27.55;14.50;;;8.10;99.90;;;;;;5054612;28;20079;-61
2022/03/16 07:15:49;;;;;;;25.92;14.02;;;8.00;99.90;;;;;;5054508;28;20083;-60
2022/03/16 07:18:15;;;;;;;54.95;15.38;;;8.10;99.90;;;;;;5053524;28;20037;-60
2022/03/16 07:20:41;;;;;;;26.00;15.13;;;8.00;99.90;;;;;;5053172;28;20033;-60
2022/03/16 07:23:15;;;;;;;23.58;13.65;;;8.00;99.90;;;;;;5054835;28;20028;-61
2022/03/16 07:25:46;;;;;;;24.83;13.52;;;8.00;99.90;;;;;;5054424;28;20028;-61
2022/03/16 07:28:12;;;;;;;23.17;14.52;;;8.00;99.90;;;;;;5053867;28;20025;-60
2022/03/16 07:30:39;;;;;;;31.45;14.55;;;8.00;99.90;;;;;;5054661;28;20452;-61
2022/03/16 07:33:06;;;;;;;23.10;12.88;;;8.00;99.90;;;;;;5054302;28;20044;-61
2022/03/16 07:35:32;;;;;;;24.95;14.70;;;8.00;99.90;;;;;;5054421;28;20021;-66
2022/03/16 07:38:01;;;;;;;24.45;13.30;;;8.10;99.90;;;;;;5053848;28;20032;-61
2022/03/16 07:40:28;;;;;;;29.17;13.43;;;8.10;99.90;;;;;;5055080;28;20045;-61
2022/03/16 07:42:54;;;;;;;25.10;14.00;;;8.10;99.90;;;;;;5054663;28;20067;-62
2022/03/16 07:45:20;;;;;;;22.95;13.85;;;8.20;99.90;;;;;;5054388;28;20108;-62
2022/03/16 07:47:50;;;;;;;24.15;14.10;;;8.20;99.90;;;;;;5054391;28;20021;-61
2022/03/16 07:50:17;;;;;;;23.38;13.60;;;8.20;99.90;;;;;;5053827;28;20441;-61
2022/03/16 07:52:43;;;;;;;24.70;14.32;;;8.20;99.90;;;;;;5052764;28;20025;-61
2022/03/16 07:55:10;;;;;;;24.27;13.85;;;8.30;99.90;;;;;;5052694;28;20025;-61
2022/03/16 07:57:37;;;;;;;24.63;14.15;;;8.30;99.90;;;;;;5053910;28;20025;-61
2022/03/16 08:00:04;;;;;;;29.00;14.95;;;8.40;99.90;;;;;;5053856;28;20029;-61
2022/03/16 08:02:30;;;;;;;29.58;15.15;;;8.40;99.90;;;;;;5052452;28;20035;-61
2022/03/16 08:05:00;;;;;;;26.33;14.90;;;8.30;99.90;;;;;;5054064;28;20029;-61
2022/03/16 08:07:30;;;;;;;25.05;14.57;;;8.30;99.90;;;;;;5053911;28;20090;-61
2022/03/16 08:09:59;;;;;;;24.70;14.60;;;8.30;99.90;;;;;;5053729;28;20056;-61
2022/03/16 08:12:26;;;;;;;28.13;15.57;;;8.30;99.90;;;;;;5053448;28;20083;-61
2022/03/16 08:14:52;;;;;;;30.08;15.93;;;8.30;99.90;;;;;;5053333;28;20028;-61
2022/03/16 08:17:18;;;;;;;27.63;15.80;;;8.20;99.90;;;;;;5052487;28;20021;-61
2022/03/16 08:19:44;;;;;;;27.50;15.55;;;8.20;99.90;;;;;;5053917;28;20389;-61
2022/03/16 08:22:10;;;;;;;29.00;16.33;;;8.20;99.90;;;;;;5054146;28;20111;-61
2022/03/16 08:24:36;;;;;;;27.95;15.70;;;8.20;99.90;;;;;;5052285;28;20128;-63
2022/03/16 08:27:02;;;;;;;32.45;15.70;;;8.20;99.90;;;;;;5052927;28;20029;-61
2022/03/16 08:29:28;;;;;;;28.90;17.55;;;8.20;99.90;;;;;;5053733;28;20549;-61
2022/03/16 08:31:54;;;;;;;29.10;16.80;;;8.20;99.90;;;;;;5052403;28;20052;-60
2022/03/16 08:34:20;;;;;;;26.88;15.57;;;8.20;99.90;;;;;;5053698;28;20110;-61
2022/03/16 08:36:45;;;;;;;30.15;16.88;;;8.20;99.90;;;;;;5052319;28;20059;-61
2022/03/16 08:39:11;;;;;;;30.50;17.20;;;8.20;99.90;;;;;;5055813;28;20079;-61
2022/03/16 08:41:37;;;;;;;30.88;16.17;;;8.20;99.90;;;;;;5057277;28;20485;-61
2022/03/16 08:44:03;;;;;;;28.33;15.77;;;8.10;99.90;;;;;;5057467;28;20358;-61
2022/03/16 08:46:30;;;;;;;27.38;16.35;;;8.20;99.90;;;;;;5058000;28;20017;-61
2022/03/16 08:48:56;;;;;;;29.90;17.77;;;8.20;99.90;;;;;;5056124;28;20029;-61
2022/03/16 08:51:21;;;;;;;29.85;17.35;;;8.20;99.90;;;;;;5057298;28;20087;-61
2022/03/16 08:53:47;;;;;;;31.27;17.80;;;8.20;99.90;;;;;;5057072;28;20033;-61
2022/03/16 08:56:13;;;;;;;34.40;19.00;;;8.20;99.90;;;;;;5057568;28;20025;-61
2022/03/16 08:58:39;;;;;;;29.85;17.42;;;8.20;99.90;;;;;;5055942;28;20432;-61
2022/03/16 09:01:05;;;;;;;30.10;16.85;;;8.20;99.90;;;;;;5055553;28;20025;-61
2022/03/16 09:03:31;;;;;;;30.63;17.90;;;8.20;99.90;;;;;;5055750;28;20043;-61
2022/03/16 09:05:58;;;;;;;32.47;18.25;;;8.20;99.90;;;;;;5057455;28;20025;-61
2022/03/16 09:11:08;;;;;;;31.05;18.33;;;8.20;99.90;;;;;;5057010;28;20071;-61
2022/03/16 09:13:34;;;;;;;31.83;18.73;;;8.20;99.90;;;;;;5056568;28;20054;-61
2022/03/16 09:16:01;;;;;;;33.72;18.10;;;8.30;99.90;;;;;;5056804;28;20048;-61
2022/03/16 09:18:28;;;;;;;31.50;17.95;;;8.30;99.90;;;;;;5055966;28;20518;-61
2022/03/16 09:20:54;;;;;;;29.38;17.17;;;8.30;99.90;;;;;;5055507;28;20025;-61
2022/03/16 09:23:19;;;;;;;31.77;18.52;;;8.30;99.90;;;;;;5056618;28;20036;-61
2022/03/16 09:25:45;;;;;;;28.98;18.20;;;8.30;99.90;;;;;;5056408;28;20037;-61
2022/03/16 09:28:11;;;;;;;27.17;17.00;;;8.40;99.90;;;;;;5056620;28;20029;-61
2022/03/16 09:30:37;;;;;;;29.33;17.38;;;8.40;99.90;;;;;;5055621;28;20028;-61
2022/03/16 09:33:04;;;;;;;30.75;17.75;;;8.40;99.90;;;;;;5056359;28;20040;-61
2022/03/16 09:35:31;;;;;;;31.00;17.58;;;8.40;99.90;;;;;;5056186;28;20366;-61
2022/03/16 09:37:58;;;;;;;27.42;16.77;;;8.50;99.90;;;;;;5055176;28;20472;-63
2022/03/16 09:40:24;;;;;;;35.00;18.92;;;8.50;99.90;;;;;;5056595;28;20419;-61
2022/03/16 09:42:52;;;;;;;29.30;18.52;;;8.50;99.90;;;;;;5056595;28;20032;-61
2022/03/16 09:45:20;;;;;;;29.17;17.65;;;8.50;99.90;;;;;;5056333;28;20029;-61
2022/03/16 09:47:47;;;;;;;32.63;18.05;;;8.50;99.90;;;;;;5056266;28;20021;-61
2022/03/16 09:50:14;;;;;;;33.92;19.63;;;8.60;99.90;;;;;;5055481;28;20053;-61
2022/03/16 09:52:40;;;;;;;30.23;17.88;;;8.50;99.90;;;;;;5056168;28;20438;-61
2022/03/16 09:55:06;;;;;;;30.63;18.00;;;8.50;99.90;;;;;;5055609;28;20369;-61
2022/03/16 09:57:33;;;;;;;31.40;17.85;;;8.50;99.90;;;;;;5056418;28;20114;-61
2022/03/16 10:00:00;;;;;;;35.33;18.63;;;8.50;99.90;;;;;;5056063;28;20025;-61
2022/03/16 10:02:27;;;;;;;30.35;17.77;;;8.60;99.90;;;;;;5055948;28;20021;-64
2022/03/16 10:04:53;;;;;;;28.40;17.80;;;8.50;99.90;;;;;;5056074;28;20098;-61
2022/03/16 10:07:27;;;;;;;30.35;18.13;;;8.50;99.90;;;;;;5054282;28;20052;-61
2022/03/16 10:15:21;;;;;;;31.83;18.33;;;8.50;99.90;;;;;;5055548;28;20060;-61
2022/03/16 10:18:02;;;;;;;35.97;18.85;;;8.50;99.90;;;;;;5055521;28;20385;-61
2022/03/16 10:20:30;;;;;;;37.95;19.08;;;8.60;99.90;;;;;;5055840;28;20021;-61
2022/03/16 10:23:16;;;;;;;39.65;19.00;;;8.50;99.90;;;;;;5056012;28;20544;-61
2022/03/16 10:25:47;;;;;;;35.03;19.48;;;8.50;99.90;;;;;;5055639;28;20037;-61
2022/03/16 10:28:16;;;;;;;31.70;18.75;;;8.50;99.90;;;;;;5055718;28;20024;-61
2022/03/16 10:30:55;;;;;;;33.33;19.10;;;8.60;99.90;;;;;;5055836;28;20021;-61
2022/03/16 10:33:24;;;;;;;33.25;18.42;;;8.60;99.90;;;;;;5055511;28;20071;-61
2022/03/16 10:36:07;;;;;;;29.35;18.40;;;8.60;99.90;;;;;;5055428;28;20033;-62
2022/03/16 10:38:37;;;;;;;29.25;18.15;;;8.60;99.90;;;;;;5054130;28;20032;-61
2022/03/16 10:46:50;;;;;;;33.28;19.05;;;8.60;99.90;;;;;;5055221;28;20062;-61
2022/03/16 10:49:19;;;;;;;41.13;20.50;;;8.70;99.90;;;;;;5053860;28;20057;-63
2022/03/16 10:51:45;;;;;;;34.05;20.58;;;8.70;99.90;;;;;;5055085;28;20029;-61
2022/03/16 10:54:14;;;;;;;34.97;20.83;;;8.70;99.90;;;;;;5053453;28;20041;-61
2022/03/16 10:56:40;;;;;;;;;;;8.60;99.90;;;;;;5055143;28;20426;-61
2022/03/16 10:59:07;;;;;;;36.47;20.05;;;8.60;99.90;;;;;;5053628;28;20337;-61
2022/03/16 11:01:38;;;;;;;37.33;21.10;;;8.60;99.90;;;;;;5052873;28;20048;-61
2022/03/16 11:04:04;;;;;;;32.03;19.35;;;8.60;99.90;;;;;;5054542;28;20032;-61
2022/03/16 11:06:30;;;;;;;37.10;20.60;;;8.70;99.90;;;;;;5053658;28;20079;-61
2022/03/16 11:08:57;;;;;;;30.90;18.38;;;8.70;99.90;;;;;;5054254;28;20049;-61
2022/03/16 11:14:08;;;;;;;30.88;18.65;;;8.80;99.90;;;;;;5054448;28;20055;-61
2022/03/16 11:16:34;;;;;;;32.42;19.20;;;8.80;99.90;;;;;;5053287;28;20067;-61
2022/03/16 11:19:05;;;;;;;29.80;18.17;;;8.80;99.90;;;;;;5053835;28;20384;-62
2022/03/16 11:21:53;;;;;;;30.50;17.17;;;8.80;99.90;;;;;;5055084;28;20021;-61
2022/03/16 11:24:23;;;;;;;28.13;16.98;;;8.80;99.90;;;;;;5054387;28;20115;-61
2022/03/16 11:27:10;;;;;;;25.52;15.48;;;8.70;99.90;;;;;;5054434;28;20071;-61
2022/03/16 11:29:54;;;;;;;26.33;15.93;;;8.70;99.90;;;;;;5053354;28;20029;-61
2022/03/16 11:32:20;;;;;;;23.92;15.25;;;8.70;99.90;;;;;;5054774;28;20044;-61
2022/03/16 11:34:56;;;;;;;31.27;16.38;;;8.80;99.90;;;;;;5053015;28;20040;-62
2022/03/16 11:37:44;;;;;;;24.83;14.73;;;8.80;99.90;;;;;;5053601;28;20360;-61
2022/03/16 11:40:10;;;;;;;21.65;14.60;;;8.80;99.90;;;;;;5054290;28;20469;-61
2022/03/16 11:42:44;;;;;;;22.70;14.82;;;8.90;99.90;;;;;;5053137;28;20083;-62
2022/03/16 11:45:37;;;;;;;23.63;14.30;;;9.00;99.90;;;;;;5053913;28;20424;-61
2022/03/16 11:48:34;;;;;;;22.70;14.13;;;9.10;99.90;;;;;;5052816;28;20477;-62
2022/03/16 11:51:09;;;;;;;25.00;14.48;;;9.20;99.90;;;;;;5052774;28;20456;-61
2022/03/16 11:54:07;;;;;;;21.17;14.05;;;9.20;99.90;;;;;;5054050;28;20028;-61
2022/03/16 11:56:36;;;;;;;22.58;12.30;;;9.10;99.90;;;;;;5053799;28;20037;-61
2022/03/16 11:59:09;;;;;;;25.55;14.23;;;9.10;99.90;;;;;;5052612;28;20021;-61
2022/03/16 12:01:39;;;;;;;22.88;14.20;;;9.10;99.90;;;;;;5054244;28;20021;-61
2022/03/16 12:04:19;;;;;;;27.48;14.60;;;9.10;99.90;;;;;;5053852;28;20055;-61
2022/03/16 12:07:03;;;;;;;22.88;14.18;;;9.10;99.90;;;;;;5053963;28;20075;-62
2022/03/16 12:09:39;;;;;;;21.80;14.10;;;9.10;99.90;;;;;;5053877;28;20021;-61
2022/03/16 12:15:00;;;;;;;27.30;14.98;;;9.00;99.90;;;;;;5053083;28;20094;-61
2022/03/16 12:17:25;;;;;;;31.15;15.82;;;9.00;99.90;;;;;;5053699;28;20025;-61
2022/03/16 12:20:10;;;;;;;26.88;14.82;;;9.00;99.90;;;;;;5053649;28;20031;-61
2022/03/16 12:22:44;;;;;;;25.67;15.05;;;9.10;99.90;;;;;;5052315;28;20025;-61
2022/03/16 12:25:22;;;;;;;27.38;14.38;;;9.20;99.90;;;;;;5052486;28;20041;-61
2022/03/16 12:30:47;;;;;;;27.48;14.48;;;9.40;99.90;;;;;;5033802;28;20042;-61
2022/03/16 12:33:19;;;;;;;24.92;14.55;;;9.40;99.90;;;;;;5053584;28;20480;-61
2022/03/16 12:35:46;;;;;;;28.67;15.70;;;9.50;99.90;;;;;;5053576;28;20028;-61
2022/03/16 12:38:11;;;;;;;29.10;16.13;;;9.60;99.90;;;;;;5053399;28;20028;-61
2022/03/16 12:42:31;;;;;;;28.83;15.90;;;9.70;99.90;;;;;;5053474;28;20029;-61
2022/03/16 12:43:27;;;;;;;30.27;16.33;;;9.90;99.90;;;;;;5052912;28;20481;-62
2022/03/16 12:46:32;;;;;;;32.40;16.27;;;10.00;99.90;;;;;;5053184;28;20354;-61
2022/03/16 12:49:02;;;;;;;28.83;16.85;;;10.10;99.90;;;;;;5053081;28;20489;-61
2022/03/16 12:51:48;;;;;;;32.45;17.20;;;10.10;99.90;;;;;;5053705;28;20021;-61
2022/03/16 12:54:26;;;;;;;33.55;17.45;;;10.30;99.90;;;;;;5053383;28;20036;-61
2022/03/16 12:57:07;;;;;;;29.27;17.55;;;10.50;99.90;;;;;;5053404;28;20395;-62
2022/03/16 12:59:38;;;;;;;30.60;17.25;;;11.60;99.90;;;;;;5052645;28;20036;-61
2022/03/16 13:02:10;;;;;;;28.73;16.65;;;12.40;99.90;;;;;;5053315;28;20021;-62
2022/03/16 13:04:37;;;;;;;26.23;16.65;;;12.60;99.90;;;;;;5053235;28;20384;-61
2022/03/16 13:07:05;;;;;;;26.25;16.33;;;12.30;99.90;;;;;;5053061;28;20507;-62
2022/03/16 13:09:32;;;;;;;28.23;17.60;;;11.90;99.90;;;;;;5052234;28;20028;-64
2022/03/16 13:12:16;;;;;;;30.20;18.23;;;11.40;99.90;;;;;;5053181;28;20474;-61